createdAt,value
2022-11-25T00:01:29.316Z,3.28
2022-11-25T00:03:57.549Z,3.22
2022-11-25T00:06:26.433Z,3.05
2022-11-25T00:08:59.006Z,2.95
2022-11-25T00:11:26.448Z,3.08
2022-11-25T00:13:54.196Z,3.53
2022-11-25T00:16:22.662Z,4.53
2022-11-25T00:18:54.168Z,3.35
2022-11-25T00:21:22.899Z,4.10
2022-11-25T00:23:56.997Z,3.63
2022-11-25T00:26:24.830Z,3.42
2022-11-25T00:28:52.206Z,3.55
2022-11-25T00:31:24.557Z,3.30
2022-11-25T00:33:51.747Z,3.38
2022-11-25T00:36:29.946Z,3.10
2022-11-25T00:38:59.028Z,4.05
2022-11-25T00:41:45.306Z,3.55
2022-11-25T00:44:33.699Z,3.22
2022-11-25T00:47:01.249Z,3.10
2022-11-25T00:49:28.413Z,3.03
2022-11-25T00:51:55.432Z,3.58
2022-11-25T00:54:21.950Z,2.92
2022-11-25T00:56:48.342Z,3.40
2022-11-25T00:59:16.072Z,2.92
2022-11-25T01:01:42.454Z,3.67
2022-11-25T01:04:09.664Z,3.13
2022-11-25T01:06:37.602Z,3.15
2022-11-25T01:09:06.122Z,2.72
2022-11-25T01:11:33.136Z,3.08
2022-11-25T01:14:01.629Z,3.42
2022-11-25T01:16:29.326Z,3.30
2022-11-25T01:18:56.076Z,2.45
2022-11-25T01:21:25.412Z,3.40
2022-11-25T01:23:52.890Z,2.78
2022-11-25T01:26:24.212Z,3.22
2022-11-25T01:28:59.468Z,3.15
2022-11-25T01:31:29.126Z,3.25
2022-11-25T01:34:01.532Z,2.92
2022-11-25T01:36:28.687Z,3.08
2022-11-25T01:38:57.772Z,3.15
2022-11-25T01:41:26.635Z,3.85
2022-11-25T01:44:05.922Z,3.03
2022-11-25T01:46:55.316Z,3.22
2022-11-25T01:49:30.995Z,2.97
2022-11-25T01:52:08.239Z,3.08
2022-11-25T01:54:44.039Z,3.42
2022-11-25T01:57:19.556Z,3.60
2022-11-25T01:59:51.364Z,3.13
2022-11-25T02:02:18.895Z,3.20
2022-11-25T02:04:46.863Z,3.10
2022-11-25T02:07:26.147Z,3.03
2022-11-25T02:09:53.905Z,2.72
2022-11-25T02:12:20.846Z,3.33
2022-11-25T02:14:50.651Z,3.20
2022-11-25T02:17:17.719Z,2.92
2022-11-25T02:19:57.042Z,3.17
2022-11-25T02:22:59.056Z,3.00
2022-11-25T02:25:31.282Z,3.30
2022-11-25T02:28:02.827Z,3.25
2022-11-25T02:30:29.296Z,3.53
2022-11-25T02:32:55.758Z,3.30
2022-11-25T02:35:25.264Z,2.72
2022-11-25T02:37:53.901Z,3.47
2022-11-25T02:40:20.541Z,3.10
2022-11-25T02:42:49.868Z,2.78
2022-11-25T02:45:21.680Z,3.25
2022-11-25T02:47:48.144Z,3.55
2022-11-25T02:50:14.991Z,3.20
2022-11-25T02:52:41.427Z,3.13
2022-11-25T02:55:08.345Z,3.28
2022-11-25T02:57:34.695Z,3.30
2022-11-25T03:00:01.431Z,3.38
2022-11-25T03:02:27.925Z,3.47
2022-11-25T03:04:54.461Z,3.63
2022-11-25T03:07:20.899Z,3.28
2022-11-25T03:09:47.682Z,3.92
2022-11-25T03:12:19.963Z,2.78
2022-11-25T03:14:46.795Z,3.42
2022-11-25T03:17:14.286Z,3.55
2022-11-25T03:19:40.940Z,2.83
2022-11-25T03:22:07.389Z,2.95
2022-11-25T03:24:34.324Z,2.95
2022-11-25T03:27:01.058Z,3.75
2022-11-25T03:29:27.680Z,3.45
2022-11-25T03:31:54.166Z,3.67
2022-11-25T03:34:20.773Z,3.20
2022-11-25T03:36:47.193Z,3.40
2022-11-25T03:39:13.801Z,3.08
2022-11-25T03:41:40.247Z,2.92
2022-11-25T03:44:06.809Z,2.67
2022-11-25T03:46:33.501Z,2.78
2022-11-25T03:48:59.988Z,3.55
2022-11-25T03:51:26.360Z,3.15
2022-11-25T03:53:52.848Z,3.45
2022-11-25T03:56:19.228Z,3.38
2022-11-25T03:58:45.742Z,3.05
2022-11-25T04:01:12.155Z,2.92
2022-11-25T04:03:38.732Z,3.13
2022-11-25T04:06:05.153Z,3.58
2022-11-25T04:08:31.709Z,4.05
2022-11-25T04:10:58.108Z,3.00
2022-11-25T04:13:24.706Z,3.50
2022-11-25T04:15:51.838Z,2.95
2022-11-25T04:18:19.618Z,3.60
2022-11-25T04:20:46.611Z,3.15
2022-11-25T04:23:13.909Z,3.45
2022-11-25T04:25:40.677Z,3.53
2022-11-25T04:28:07.033Z,3.33
2022-11-25T04:30:34.270Z,2.95
2022-11-25T04:33:01.468Z,3.42
2022-11-25T04:35:27.903Z,4.18
2022-11-25T04:37:54.361Z,4.10
2022-11-25T04:40:20.965Z,8.63
2022-11-25T04:42:47.426Z,4.72
2022-11-25T04:45:24.026Z,4.20
2022-11-25T04:47:51.321Z,3.17
2022-11-25T04:50:21.482Z,3.63
2022-11-25T04:52:47.996Z,3.55
2022-11-25T04:55:14.703Z,3.17
2022-11-25T04:57:41.224Z,3.85
2022-11-25T05:00:09.468Z,3.20
2022-11-25T05:02:36.030Z,3.53
2022-11-25T05:05:02.746Z,3.13
2022-11-25T05:07:29.189Z,2.92
2022-11-25T05:09:56.373Z,3.38
2022-11-25T05:12:26.701Z,3.10
2022-11-25T05:14:53.213Z,3.30
2022-11-25T05:17:22.718Z,3.15
2022-11-25T05:19:50.100Z,2.67
2022-11-25T05:22:19.245Z,3.75
2022-11-25T05:24:45.819Z,3.20
2022-11-25T05:27:16.221Z,3.20
2022-11-25T05:29:43.346Z,2.90
2022-11-25T05:32:09.968Z,2.90
2022-11-25T05:34:37.683Z,3.00
2022-11-25T05:37:04.331Z,3.17
2022-11-25T05:39:31.387Z,2.70
2022-11-25T05:41:57.865Z,2.90
2022-11-25T05:44:24.671Z,3.38
2022-11-25T05:46:51.428Z,3.05
2022-11-25T05:49:19.169Z,2.80
2022-11-25T05:51:45.923Z,2.53
2022-11-25T05:54:14.615Z,2.35
2022-11-25T05:56:41.388Z,2.70
2022-11-25T05:59:15.914Z,2.58
2022-11-25T06:01:42.319Z,2.72
2022-11-25T06:04:18.823Z,2.45
2022-11-25T06:06:45.150Z,2.97
2022-11-25T06:09:20.892Z,3.70
2022-11-25T06:11:47.313Z,3.15
2022-11-25T06:14:14.795Z,3.08
2022-11-25T06:16:41.349Z,2.50
2022-11-25T06:19:08.973Z,2.95
2022-11-25T06:21:36.641Z,3.03
2022-11-25T06:24:03.381Z,2.50
2022-11-25T06:26:30.922Z,3.53
2022-11-25T06:28:57.307Z,3.25
2022-11-25T06:31:25.985Z,2.55
2022-11-25T06:33:53.627Z,2.78
2022-11-25T06:36:21.592Z,2.72
2022-11-25T06:38:51.332Z,2.80
2022-11-25T06:41:18.080Z,2.92
2022-11-25T06:43:44.497Z,2.85
2022-11-25T06:46:14.194Z,3.35
2022-11-25T06:48:41.471Z,2.60
2022-11-25T06:51:11.139Z,4.00
2022-11-25T06:53:38.358Z,3.22
2022-11-25T06:56:06.033Z,2.55
2022-11-25T06:58:36.721Z,3.10
2022-11-25T07:01:12.014Z,2.72
2022-11-25T07:03:39.091Z,2.80
2022-11-25T07:06:06.107Z,3.15
2022-11-25T07:08:34.290Z,2.72
2022-11-25T07:11:10.452Z,2.78
2022-11-25T07:13:37.038Z,2.65
2022-11-25T07:16:05.747Z,3.40
2022-11-25T07:18:34.665Z,3.10
2022-11-25T07:21:13.715Z,3.15
2022-11-25T07:23:41.098Z,2.88
2022-11-25T07:26:19.828Z,2.92
2022-11-25T07:28:46.201Z,3.92
2022-11-25T07:31:35.792Z,3.25
2022-11-25T07:34:05.314Z,3.63
2022-11-25T07:36:32.710Z,2.65
2022-11-25T07:39:01.826Z,3.38
2022-11-25T07:41:29.512Z,2.47
2022-11-25T07:43:58.774Z,2.92
2022-11-25T07:46:29.813Z,2.70
2022-11-25T07:48:59.011Z,3.22
2022-11-25T07:51:29.079Z,2.80
2022-11-25T07:53:57.528Z,2.92
2022-11-25T07:56:24.598Z,3.70
2022-11-25T07:58:51.196Z,3.22
2022-11-25T08:01:18.784Z,2.50
2022-11-25T08:03:46.810Z,2.80
2022-11-25T08:06:15.848Z,2.92
2022-11-25T08:08:42.855Z,2.80
2022-11-25T08:11:12.107Z,2.95
2022-11-25T08:13:39.331Z,2.78
2022-11-25T08:16:06.771Z,4.85
2022-11-25T08:18:33.384Z,16.55
2022-11-25T08:21:01.993Z,23.60
2022-11-25T08:23:28.460Z,7.10
2022-11-25T08:25:54.844Z,4.18
2022-11-25T08:28:21.652Z,4.63
2022-11-25T08:30:48.224Z,4.22
2022-11-25T08:33:14.661Z,3.42
2022-11-25T08:35:41.073Z,3.25
2022-11-25T08:38:11.116Z,3.70
2022-11-25T08:40:37.882Z,2.67
2022-11-25T08:43:05.069Z,4.63
2022-11-25T08:45:31.465Z,3.92
2022-11-25T08:47:58.051Z,4.30
2022-11-25T08:50:25.192Z,3.80
2022-11-25T08:52:51.976Z,3.70
2022-11-25T08:55:18.614Z,3.50
2022-11-25T08:57:45.026Z,4.93
2022-11-25T09:00:12.143Z,4.25
2022-11-25T09:02:38.932Z,3.20
2022-11-25T09:05:05.589Z,2.92
2022-11-25T09:07:32.205Z,3.47
2022-11-25T09:09:59.084Z,3.38
2022-11-25T09:12:25.428Z,3.15
2022-11-25T09:14:52.026Z,2.90
2022-11-25T09:17:18.716Z,3.20
2022-11-25T09:19:45.231Z,3.03
2022-11-25T09:22:11.581Z,3.33
2022-11-25T09:24:38.030Z,3.40
2022-11-25T09:27:05.301Z,2.80
2022-11-25T09:29:31.917Z,3.17
2022-11-25T09:31:58.451Z,3.15
2022-11-25T09:34:25.029Z,2.85
2022-11-25T09:36:51.838Z,3.30
2022-11-25T09:39:18.628Z,2.92
2022-11-25T09:42:22.563Z,3.65
2022-11-25T09:45:29.936Z,2.80
2022-11-25T09:48:28.874Z,2.50
2022-11-25T09:51:12.015Z,2.25
2022-11-25T09:53:53.936Z,2.63
2022-11-25T09:56:29.823Z,3.13
2022-11-25T09:59:14.898Z,3.10
2022-11-25T10:01:54.107Z,2.80
2022-11-25T10:04:53.552Z,3.20
2022-11-25T10:07:28.712Z,3.00
2022-11-25T10:12:32.637Z,2.90
2022-11-25T10:15:02.815Z,4.82
2022-11-25T10:17:37.978Z,4.53
2022-11-25T10:22:49.385Z,3.50
2022-11-25T10:25:20.375Z,3.47
2022-11-25T10:27:59.257Z,2.67
2022-11-25T10:30:37.816Z,2.72
2022-11-25T10:33:18.280Z,2.50
2022-11-25T10:35:53.524Z,2.13
2022-11-25T10:38:35.296Z,1.90
2022-11-25T10:41:04.442Z,2.17
2022-11-25T10:43:39.141Z,2.22
2022-11-25T10:46:16.463Z,2.25
2022-11-25T10:49:04.708Z,1.65
2022-11-25T10:51:50.175Z,1.85
2022-11-25T10:54:39.373Z,1.60
2022-11-25T10:57:20.326Z,2.25
2022-11-25T11:00:06.186Z,1.90
2022-11-25T11:02:35.594Z,1.70
2022-11-25T11:05:18.196Z,1.85
2022-11-25T11:07:46.781Z,1.83
2022-11-25T11:10:22.868Z,2.00
2022-11-25T11:13:03.167Z,1.73
2022-11-25T11:15:31.234Z,1.95
2022-11-25T11:18:19.473Z,1.40
2022-11-25T11:20:48.000Z,1.70
2022-11-25T11:23:15.364Z,1.70
2022-11-25T11:25:44.173Z,2.35
2022-11-25T11:28:28.077Z,1.92
2022-11-25T11:31:02.200Z,1.50
2022-11-25T11:33:49.053Z,2.17
2022-11-25T11:36:45.424Z,1.92
2022-11-25T11:39:24.096Z,1.60
2022-11-25T11:42:08.382Z,1.70
2022-11-25T11:44:52.241Z,1.67
2022-11-25T11:47:40.672Z,1.65
2022-11-25T11:50:47.518Z,2.10
2022-11-25T11:53:35.117Z,1.60
2022-11-25T11:58:57.514Z,1.95
2022-11-25T12:01:51.758Z,1.45
2022-11-25T12:04:30.476Z,1.88
2022-11-25T12:07:11.590Z,2.17
2022-11-25T12:09:48.630Z,1.98
2022-11-25T12:12:19.293Z,1.58
2022-11-25T12:14:50.700Z,1.75
2022-11-25T12:17:31.716Z,3.28
2022-11-25T12:20:31.721Z,1.90
2022-11-25T12:23:02.554Z,2.05
2022-11-25T12:25:41.743Z,2.10
2022-11-25T12:28:18.004Z,1.48
2022-11-25T12:31:06.988Z,1.75
2022-11-25T12:33:43.980Z,1.27
2022-11-25T12:36:17.809Z,1.95
2022-11-25T12:38:55.976Z,1.50
2022-11-25T12:41:35.987Z,1.58
2022-11-25T12:44:08.472Z,1.40
2022-11-25T12:46:47.146Z,2.50
2022-11-25T12:49:24.517Z,2.10
2022-11-25T12:52:09.665Z,2.03
2022-11-25T12:55:04.407Z,1.92
2022-11-25T12:58:09.041Z,1.70
2022-11-25T13:01:01.774Z,1.52
2022-11-25T13:04:05.673Z,1.52
2022-11-25T13:06:38.853Z,1.63
2022-11-25T13:09:27.926Z,1.70
2022-11-25T13:12:22.232Z,1.85
2022-11-25T13:15:17.690Z,1.15
2022-11-25T13:17:47.288Z,2.40
2022-11-25T13:20:29.056Z,1.30
2022-11-25T13:23:10.722Z,1.95
2022-11-25T13:25:40.002Z,1.90
2022-11-25T13:28:36.375Z,1.50
2022-11-25T13:31:31.402Z,1.65
2022-11-25T13:33:57.882Z,1.20
2022-11-25T13:36:42.938Z,2.35
2022-11-25T13:39:18.783Z,1.45
2022-11-25T13:41:58.551Z,1.88
2022-11-25T13:44:46.583Z,1.40
2022-11-25T13:47:28.362Z,2.08
2022-11-25T13:49:58.495Z,2.22
2022-11-25T13:52:27.601Z,2.10
2022-11-25T13:54:56.582Z,1.75
2022-11-25T13:57:36.626Z,1.48
2022-11-25T14:00:10.126Z,1.75
2022-11-25T14:02:44.904Z,1.05
2022-11-25T14:05:44.830Z,2.00
2022-11-25T14:08:58.791Z,1.73
2022-11-25T14:11:51.707Z,1.95
2022-11-25T14:14:49.234Z,1.75
2022-11-25T14:17:28.587Z,2.00
2022-11-25T14:20:09.961Z,1.38
2022-11-25T14:22:45.470Z,1.58
2022-11-25T14:25:24.967Z,1.75
2022-11-25T14:28:02.383Z,1.98
2022-11-25T14:30:31.111Z,1.27
2022-11-25T14:33:02.952Z,1.38
2022-11-25T14:36:09.154Z,1.58
2022-11-25T14:38:47.293Z,1.42
2022-11-25T14:41:19.323Z,1.85
2022-11-25T14:43:55.641Z,1.63
2022-11-25T14:46:25.458Z,1.95
2022-11-25T14:49:00.320Z,1.45
2022-11-25T14:51:37.766Z,1.52
2022-11-25T14:54:08.527Z,1.70
2022-11-25T14:56:36.916Z,1.77
2022-11-25T14:59:03.979Z,1.58
2022-11-25T15:01:32.534Z,1.67
2022-11-25T15:04:19.609Z,1.70
2022-11-25T15:06:56.697Z,1.30
2022-11-25T15:09:26.245Z,1.48
2022-11-25T15:12:08.245Z,2.55
2022-11-25T15:14:38.222Z,3.53
2022-11-25T15:17:09.681Z,4.05
2022-11-25T15:19:37.612Z,4.20
2022-11-25T15:22:23.678Z,5.28
2022-11-25T15:24:55.506Z,5.30
2022-11-25T15:27:28.393Z,4.32
2022-11-25T15:29:57.235Z,2.35
2022-11-25T15:32:29.854Z,2.40
2022-11-25T15:34:59.414Z,2.40
2022-11-25T15:37:26.021Z,2.22
2022-11-25T15:40:30.191Z,1.50
2022-11-25T15:42:59.354Z,1.70
2022-11-25T15:45:29.763Z,1.65
2022-11-25T15:47:57.043Z,1.73
2022-11-25T15:50:26.645Z,1.67
2022-11-25T15:52:56.053Z,1.88
2022-11-25T15:55:28.248Z,2.17
2022-11-25T15:57:58.176Z,1.80
2022-11-25T16:00:24.904Z,1.75
2022-11-25T16:02:54.896Z,1.90
2022-11-25T16:05:26.183Z,1.73
2022-11-25T16:07:52.642Z,2.20
2022-11-25T16:10:23.082Z,1.83
2022-11-25T16:13:33.399Z,2.10
2022-11-25T16:16:26.217Z,1.48
2022-11-25T16:19:02.025Z,1.83
2022-11-25T16:21:38.892Z,2.05
2022-11-25T16:24:05.286Z,1.58
2022-11-25T16:26:37.849Z,2.17
2022-11-25T16:29:22.527Z,2.00
2022-11-25T16:31:49.003Z,2.20
2022-11-25T16:34:18.587Z,1.70
2022-11-25T16:36:45.441Z,1.95
2022-11-25T16:39:12.442Z,2.05
2022-11-25T16:41:41.156Z,2.10
2022-11-25T16:44:19.508Z,2.35
2022-11-25T16:46:45.996Z,2.15
2022-11-25T16:49:18.657Z,2.33
2022-11-25T16:51:45.438Z,2.17
2022-11-25T16:54:12.755Z,2.25
2022-11-25T16:56:43.135Z,2.05
2022-11-25T16:59:16.874Z,1.88
2022-11-25T17:01:43.999Z,1.75
2022-11-25T17:04:15.259Z,1.95
2022-11-25T17:06:42.223Z,2.33
2022-11-25T17:09:09.016Z,1.80
2022-11-25T17:11:46.147Z,2.45
2022-11-25T17:14:23.866Z,2.20
2022-11-25T17:16:50.701Z,2.40
2022-11-25T17:19:17.245Z,2.22
2022-11-25T17:21:44.166Z,1.83
2022-11-25T17:24:15.726Z,1.70
2022-11-25T17:26:44.235Z,2.22
2022-11-25T17:29:18.239Z,3.03
2022-11-25T17:31:45.541Z,2.45
2022-11-25T17:34:15.494Z,1.60
2022-11-25T17:36:43.617Z,1.83
2022-11-25T17:39:14.464Z,1.70
2022-11-25T17:41:47.417Z,1.80
2022-11-25T17:44:28.552Z,1.80
2022-11-25T17:46:56.755Z,2.30
2022-11-25T17:49:23.849Z,2.25
2022-11-25T17:51:50.580Z,2.30
2022-11-25T17:54:17.793Z,2.50
2022-11-25T17:56:50.702Z,2.20
2022-11-25T17:59:25.272Z,3.53
2022-11-25T18:01:52.155Z,1.90
2022-11-25T18:04:24.019Z,2.58
2022-11-25T18:06:50.799Z,1.98
2022-11-25T18:09:17.725Z,1.90
2022-11-25T18:11:48.125Z,2.65
2022-11-25T18:14:20.619Z,6.53
2022-11-25T18:16:47.640Z,8.15
2022-11-25T18:19:14.069Z,7.18
2022-11-25T18:21:41.239Z,5.20
2022-11-25T18:24:07.887Z,3.80
2022-11-25T18:26:43.387Z,3.63
2022-11-25T18:29:15.735Z,2.90
2022-11-25T18:31:42.462Z,2.95
2022-11-25T18:34:15.654Z,2.63
2022-11-25T18:36:43.256Z,2.72
2022-11-25T18:39:10.762Z,3.08
2022-11-25T18:41:38.929Z,2.17
2022-11-25T18:44:07.296Z,2.88
2022-11-25T18:46:37.544Z,2.53
2022-11-25T18:49:15.149Z,2.72
2022-11-25T18:51:42.794Z,3.38
2022-11-25T18:54:09.345Z,3.58
2022-11-25T18:56:38.177Z,3.13
2022-11-25T18:59:06.349Z,2.78
2022-11-25T19:01:33.230Z,2.33
2022-11-25T19:04:00.098Z,2.30
2022-11-25T19:06:29.812Z,1.92
2022-11-25T19:08:56.674Z,2.50
2022-11-25T19:11:30.593Z,2.53
2022-11-25T19:14:08.830Z,2.80
2022-11-25T19:16:35.671Z,2.60
2022-11-25T19:19:02.719Z,2.15
2022-11-25T19:21:30.634Z,2.53
2022-11-25T19:23:57.069Z,2.65
2022-11-25T19:26:29.832Z,2.67
2022-11-25T19:29:02.674Z,2.83
2022-11-25T19:31:32.844Z,2.72
2022-11-25T19:34:00.348Z,2.45
2022-11-25T19:36:30.990Z,2.60
2022-11-25T19:38:58.010Z,2.55
2022-11-25T19:41:24.472Z,2.45
2022-11-25T19:43:50.866Z,2.58
2022-11-25T19:46:29.405Z,2.67
2022-11-25T19:48:59.882Z,2.58
2022-11-25T19:51:31.407Z,2.85
2022-11-25T19:53:57.763Z,2.53
2022-11-25T19:56:26.826Z,3.20
2022-11-25T19:58:54.624Z,3.08
2022-11-25T20:01:25.261Z,2.90
2022-11-25T20:03:51.875Z,3.20
2022-11-25T20:06:19.722Z,2.53
2022-11-25T20:08:47.109Z,3.53
2022-11-25T20:11:15.835Z,2.78
2022-11-25T20:13:43.683Z,2.70
2022-11-25T20:16:17.166Z,3.08
2022-11-25T20:18:44.326Z,2.58
2022-11-25T20:21:18.773Z,2.83
2022-11-25T20:23:46.531Z,2.95
2022-11-25T20:26:29.805Z,3.20
2022-11-25T20:28:56.785Z,2.90
2022-11-25T20:31:28.754Z,2.85
2022-11-25T20:33:56.752Z,2.58
2022-11-25T20:36:28.601Z,2.97
2022-11-25T20:38:56.118Z,2.88
2022-11-25T20:41:27.746Z,3.40
2022-11-25T20:43:57.617Z,2.67
2022-11-25T20:46:29.937Z,3.05
2022-11-25T20:48:59.319Z,3.35
2022-11-25T20:51:26.431Z,3.65
2022-11-25T20:53:57.225Z,2.95
2022-11-25T20:56:25.776Z,3.35
2022-11-25T20:58:52.701Z,3.92
2022-11-25T21:01:19.341Z,3.47
2022-11-25T21:03:47.229Z,3.67
2022-11-25T21:06:27.471Z,3.97
2022-11-25T21:08:59.016Z,3.47
2022-11-25T21:11:27.675Z,3.42
2022-11-25T21:13:54.657Z,3.47
2022-11-25T21:16:21.212Z,3.40
2022-11-25T21:18:47.884Z,3.42
2022-11-25T21:21:18.330Z,4.38
2022-11-25T21:23:47.384Z,3.58
2022-11-25T21:26:19.652Z,3.85
2022-11-25T21:28:47.831Z,4.03
2022-11-25T21:31:16.693Z,3.60
2022-11-25T21:33:44.437Z,3.40
2022-11-25T21:36:21.370Z,3.45
2022-11-25T21:38:49.834Z,3.60
2022-11-25T21:41:16.618Z,3.58
2022-11-25T21:43:46.740Z,4.40
2022-11-25T21:46:21.910Z,4.55
2022-11-25T21:48:48.352Z,4.30
2022-11-25T21:51:21.716Z,4.22
2022-11-25T21:53:49.065Z,4.32
2022-11-25T21:56:25.108Z,4.07
2022-11-25T21:58:51.689Z,3.45
2022-11-25T22:01:18.653Z,4.45
2022-11-25T22:03:45.199Z,4.47
2022-11-25T22:06:29.620Z,4.00
2022-11-25T22:08:56.908Z,3.90
2022-11-25T22:11:31.676Z,3.95
2022-11-25T22:13:59.536Z,4.20
2022-11-25T22:16:32.259Z,4.57
2022-11-25T22:18:59.607Z,4.60
2022-11-25T22:21:26.448Z,4.13
2022-11-25T22:23:52.866Z,4.38
2022-11-25T22:26:46.550Z,4.68
2022-11-25T22:29:21.637Z,5.45
2022-11-25T22:31:49.102Z,4.82
2022-11-25T22:34:21.956Z,4.30
2022-11-25T22:36:49.192Z,4.47
2022-11-25T22:39:26.311Z,5.15
2022-11-25T22:42:07.572Z,5.80
2022-11-25T22:44:40.015Z,4.55
2022-11-25T22:47:07.618Z,4.75
2022-11-25T22:49:39.715Z,4.95
2022-11-25T22:52:18.625Z,4.75
2022-11-25T22:54:45.009Z,5.20
2022-11-25T22:57:11.534Z,4.65
2022-11-25T22:59:37.973Z,4.72
2022-11-25T23:02:04.694Z,5.05
2022-11-25T23:04:31.083Z,5.00
2022-11-25T23:06:57.860Z,5.35
2022-11-25T23:09:24.375Z,5.13
2022-11-25T23:11:50.774Z,4.68
2022-11-25T23:14:17.128Z,4.90
2022-11-25T23:16:43.814Z,5.00
2022-11-25T23:19:16.777Z,5.10
2022-11-25T23:21:45.383Z,5.25
2022-11-25T23:24:14.028Z,5.03
2022-11-25T23:26:40.772Z,4.13
2022-11-25T23:29:07.407Z,4.60
2022-11-25T23:31:36.190Z,7.95
2022-11-25T23:34:06.266Z,8.50
2022-11-25T23:36:44.660Z,7.47
2022-11-25T23:39:19.037Z,9.10
2022-11-25T23:41:45.604Z,6.88
2022-11-25T23:44:15.176Z,6.07
2022-11-25T23:46:44.057Z,4.97
2022-11-25T23:49:22.876Z,5.07
2022-11-25T23:51:49.863Z,6.10
2022-11-25T23:54:20.942Z,5.45
2022-11-25T23:56:47.947Z,5.05
2022-11-25T23:59:16.328Z,4.47
